sensor_id;sensor_type;location;lat;lon;timestamp;P1;durP1;ratioP1;P2;durP2;ratioP2
25868;SDS011;13688;53.154;18.136;2023-02-04T00:01:32;8.23;;;5.33;;
25868;SDS011;13688;53.154;18.136;2023-02-04T00:06:54;9.48;;;5.65;;
25868;SDS011;13688;53.154;18.136;2023-02-04T00:12:17;11.55;;;6.40;;
25868;SDS011;13688;53.154;18.136;2023-02-04T00:17:39;10.45;;;6.17;;
25868;SDS011;13688;53.154;18.136;2023-02-04T00:23:02;10.05;;;5.92;;
25868;SDS011;13688;53.154;18.136;2023-02-04T00:28:24;11.50;;;6.50;;
25868;SDS011;13688;53.154;18.136;2023-02-04T00:33:46;10.38;;;5.95;;
25868;SDS011;13688;53.154;18.136;2023-02-04T00:39:09;10.25;;;5.55;;
25868;SDS011;13688;53.154;18.136;2023-02-04T00:44:31;11.88;;;4.70;;
25868;SDS011;13688;53.154;18.136;2023-02-04T00:49:54;7.50;;;4.72;;
25868;SDS011;13688;53.154;18.136;2023-02-04T00:55:17;8.08;;;4.90;;
25868;SDS011;13688;53.154;18.136;2023-02-04T01:00:39;9.48;;;5.35;;
25868;SDS011;13688;53.154;18.136;2023-02-04T01:06:02;10.25;;;5.70;;
25868;SDS011;13688;53.154;18.136;2023-02-04T01:11:24;11.85;;;6.10;;
25868;SDS011;13688;53.154;18.136;2023-02-04T01:16:47;9.85;;;5.60;;
25868;SDS011;13688;53.154;18.136;2023-02-04T01:22:09;10.43;;;5.62;;
25868;SDS011;13688;53.154;18.136;2023-02-04T01:27:31;10.00;;;5.90;;
25868;SDS011;13688;53.154;18.136;2023-02-04T01:32:54;10.65;;;6.10;;
25868;SDS011;13688;53.154;18.136;2023-02-04T01:38:16;12.00;;;6.47;;
25868;SDS011;13688;53.154;18.136;2023-02-04T01:43:39;10.28;;;5.47;;
25868;SDS011;13688;53.154;18.136;2023-02-04T01:49:03;8.73;;;5.45;;
25868;SDS011;13688;53.154;18.136;2023-02-04T01:54:26;9.60;;;5.70;;
25868;SDS011;13688;53.154;18.136;2023-02-04T01:59:49;11.70;;;5.67;;
25868;SDS011;13688;53.154;18.136;2023-02-04T02:05:17;7.95;;;4.70;;
25868;SDS011;13688;53.154;18.136;2023-02-04T02:10:48;6.95;;;4.20;;
25868;SDS011;13688;53.154;18.136;2023-02-04T02:16:11;11.40;;;4.87;;
25868;SDS011;13688;53.154;18.136;2023-02-04T02:21:37;8.83;;;4.20;;
25868;SDS011;13688;53.154;18.136;2023-02-04T02:27:02;7.42;;;3.70;;
25868;SDS011;13688;53.154;18.136;2023-02-04T02:32:27;5.62;;;3.27;;
25868;SDS011;13688;53.154;18.136;2023-02-04T02:37:50;8.58;;;3.47;;
25868;SDS011;13688;53.154;18.136;2023-02-04T02:43:13;4.72;;;2.72;;
25868;SDS011;13688;53.154;18.136;2023-02-04T02:48:37;6.05;;;2.92;;
25868;SDS011;13688;53.154;18.136;2023-02-04T02:53:59;6.15;;;2.77;;
25868;SDS011;13688;53.154;18.136;2023-02-04T02:59:33;5.03;;;2.35;;
25868;SDS011;13688;53.154;18.136;2023-02-04T03:04:56;3.93;;;2.30;;
25868;SDS011;13688;53.154;18.136;2023-02-04T03:10:19;4.67;;;2.02;;
25868;SDS011;13688;53.154;18.136;2023-02-04T03:15:42;7.00;;;2.45;;
25868;SDS011;13688;53.154;18.136;2023-02-04T03:21:05;5.03;;;2.05;;
25868;SDS011;13688;53.154;18.136;2023-02-04T03:26:28;5.47;;;2.42;;
25868;SDS011;13688;53.154;18.136;2023-02-04T03:31:50;5.28;;;1.92;;
25868;SDS011;13688;53.154;18.136;2023-02-04T03:37:13;5.95;;;1.98;;
25868;SDS011;13688;53.154;18.136;2023-02-04T03:42:36;3.42;;;2.00;;
25868;SDS011;13688;53.154;18.136;2023-02-04T03:47:58;4.42;;;2.25;;
25868;SDS011;13688;53.154;18.136;2023-02-04T03:53:20;5.75;;;2.40;;
25868;SDS011;13688;53.154;18.136;2023-02-04T03:58:42;4.00;;;2.17;;
25868;SDS011;13688;53.154;18.136;2023-02-04T04:04:04;4.37;;;2.33;;
25868;SDS011;13688;53.154;18.136;2023-02-04T04:09:28;4.10;;;2.22;;
25868;SDS011;13688;53.154;18.136;2023-02-04T04:14:50;5.33;;;2.30;;
25868;SDS011;13688;53.154;18.136;2023-02-04T04:20:13;4.22;;;2.15;;
25868;SDS011;13688;53.154;18.136;2023-02-04T04:25:36;3.25;;;1.90;;
25868;SDS011;13688;53.154;18.136;2023-02-04T04:30:59;4.67;;;2.27;;
25868;SDS011;13688;53.154;18.136;2023-02-04T04:36:21;5.92;;;2.10;;
25868;SDS011;13688;53.154;18.136;2023-02-04T04:41:44;4.78;;;1.87;;
25868;SDS011;13688;53.154;18.136;2023-02-04T04:47:06;4.62;;;2.02;;
25868;SDS011;13688;53.154;18.136;2023-02-04T04:52:28;8.15;;;2.17;;
25868;SDS011;13688;53.154;18.136;2023-02-04T04:57:51;6.62;;;2.52;;
25868;SDS011;13688;53.154;18.136;2023-02-04T05:03:14;5.30;;;2.50;;
25868;SDS011;13688;53.154;18.136;2023-02-04T05:08:36;4.90;;;2.58;;
25868;SDS011;13688;53.154;18.136;2023-02-04T05:13:58;5.03;;;2.08;;
25868;SDS011;13688;53.154;18.136;2023-02-04T05:19:21;3.42;;;1.47;;
25868;SDS011;13688;53.154;18.136;2023-02-04T05:24:43;4.62;;;2.02;;
25868;SDS011;13688;53.154;18.136;2023-02-04T05:30:07;5.75;;;2.10;;
25868;SDS011;13688;53.154;18.136;2023-02-04T05:35:30;8.25;;;2.00;;
25868;SDS011;13688;53.154;18.136;2023-02-04T05:40:52;5.08;;;1.70;;
25868;SDS011;13688;53.154;18.136;2023-02-04T05:46:14;3.00;;;1.50;;
25868;SDS011;13688;53.154;18.136;2023-02-04T05:51:37;3.70;;;1.40;;
25868;SDS011;13688;53.154;18.136;2023-02-04T05:56:59;6.03;;;1.60;;
25868;SDS011;13688;53.154;18.136;2023-02-04T06:02:22;5.55;;;1.62;;
25868;SDS011;13688;53.154;18.136;2023-02-04T06:07:44;2.77;;;1.50;;
25868;SDS011;13688;53.154;18.136;2023-02-04T06:13:07;3.22;;;1.30;;
25868;SDS011;13688;53.154;18.136;2023-02-04T06:18:29;3.70;;;1.30;;
25868;SDS011;13688;53.154;18.136;2023-02-04T06:23:51;5.55;;;1.62;;
25868;SDS011;13688;53.154;18.136;2023-02-04T06:29:14;4.83;;;1.62;;
25868;SDS011;13688;53.154;18.136;2023-02-04T06:34:36;2.45;;;1.17;;
25868;SDS011;13688;53.154;18.136;2023-02-04T06:39:59;3.50;;;1.22;;
25868;SDS011;13688;53.154;18.136;2023-02-04T06:45:22;3.50;;;1.27;;
25868;SDS011;13688;53.154;18.136;2023-02-04T06:50:44;5.60;;;1.85;;
25868;SDS011;13688;53.154;18.136;2023-02-04T06:56:07;3.02;;;1.37;;
25868;SDS011;13688;53.154;18.136;2023-02-04T07:01:32;4.03;;;1.60;;
25868;SDS011;13688;53.154;18.136;2023-02-04T07:06:55;3.45;;;1.40;;
25868;SDS011;13688;53.154;18.136;2023-02-04T07:12:18;5.25;;;1.95;;
25868;SDS011;13688;53.154;18.136;2023-02-04T07:17:40;11.97;;;3.30;;
25868;SDS011;13688;53.154;18.136;2023-02-04T07:23:03;7.97;;;3.08;;
25868;SDS011;13688;53.154;18.136;2023-02-04T07:28:27;7.03;;;3.10;;
25868;SDS011;13688;53.154;18.136;2023-02-04T07:33:49;4.72;;;2.50;;
25868;SDS011;13688;53.154;18.136;2023-02-04T07:39:12;6.37;;;2.20;;
25868;SDS011;13688;53.154;18.136;2023-02-04T07:44:34;4.75;;;1.80;;
25868;SDS011;13688;53.154;18.136;2023-02-04T07:49:57;4.35;;;1.87;;
25868;SDS011;13688;53.154;18.136;2023-02-04T07:55:20;5.47;;;1.60;;
25868;SDS011;13688;53.154;18.136;2023-02-04T08:00:42;4.47;;;2.02;;
25868;SDS011;13688;53.154;18.136;2023-02-04T08:06:04;4.15;;;1.50;;
25868;SDS011;13688;53.154;18.136;2023-02-04T08:11:27;3.55;;;1.32;;
25868;SDS011;13688;53.154;18.136;2023-02-04T08:16:49;3.87;;;1.72;;
25868;SDS011;13688;53.154;18.136;2023-02-04T08:22:12;4.62;;;1.40;;
25868;SDS011;13688;53.154;18.136;2023-02-04T08:27:34;5.60;;;1.98;;
25868;SDS011;13688;53.154;18.136;2023-02-04T08:32:57;4.97;;;1.92;;
25868;SDS011;13688;53.154;18.136;2023-02-04T08:38:20;5.55;;;2.25;;
25868;SDS011;13688;53.154;18.136;2023-02-04T08:43:44;3.70;;;1.52;;
25868;SDS011;13688;53.154;18.136;2023-02-04T08:49:06;3.75;;;1.30;;
25868;SDS011;13688;53.154;18.136;2023-02-04T08:54:29;4.97;;;1.42;;
25868;SDS011;13688;53.154;18.136;2023-02-04T08:59:51;3.80;;;1.37;;
25868;SDS011;13688;53.154;18.136;2023-02-04T09:05:14;3.52;;;1.17;;
25868;SDS011;13688;53.154;18.136;2023-02-04T09:10:36;7.08;;;1.45;;
25868;SDS011;13688;53.154;18.136;2023-02-04T09:15:58;3.08;;;1.32;;
25868;SDS011;13688;53.154;18.136;2023-02-04T09:21:21;4.72;;;1.27;;
25868;SDS011;13688;53.154;18.136;2023-02-04T09:26:44;3.45;;;1.60;;
25868;SDS011;13688;53.154;18.136;2023-02-04T09:32:06;5.10;;;1.95;;
25868;SDS011;13688;53.154;18.136;2023-02-04T09:37:28;5.90;;;1.90;;
25868;SDS011;13688;53.154;18.136;2023-02-04T09:42:51;4.08;;;1.65;;
25868;SDS011;13688;53.154;18.136;2023-02-04T09:48:14;2.45;;;1.22;;
25868;SDS011;13688;53.154;18.136;2023-02-04T09:53:38;5.33;;;2.12;;
25868;SDS011;13688;53.154;18.136;2023-02-04T09:59:05;5.80;;;1.52;;
25868;SDS011;13688;53.154;18.136;2023-02-04T10:04:31;3.02;;;1.40;;
25868;SDS011;13688;53.154;18.136;2023-02-04T10:09:54;5.55;;;2.00;;
25868;SDS011;13688;53.154;18.136;2023-02-04T10:15:20;3.37;;;1.42;;
25868;SDS011;13688;53.154;18.136;2023-02-04T10:20:43;3.55;;;1.82;;
25868;SDS011;13688;53.154;18.136;2023-02-04T10:26:26;4.12;;;1.87;;
25868;SDS011;13688;53.154;18.136;2023-02-04T10:31:49;3.35;;;1.70;;
25868;SDS011;13688;53.154;18.136;2023-02-04T10:37:18;3.22;;;1.40;;
25868;SDS011;13688;53.154;18.136;2023-02-04T10:42:46;3.50;;;1.40;;
25868;SDS011;13688;53.154;18.136;2023-02-04T10:48:05;3.62;;;1.50;;
25868;SDS011;13688;53.154;18.136;2023-02-04T10:53:34;1.80;;;0.97;;
25868;SDS011;13688;53.154;18.136;2023-02-04T10:59:19;3.10;;;1.22;;
25868;SDS011;13688;53.154;18.136;2023-02-04T11:04:41;4.42;;;1.65;;
25868;SDS011;13688;53.154;18.136;2023-02-04T11:10:04;4.37;;;1.70;;
25868;SDS011;13688;53.154;18.136;2023-02-04T11:15:53;2.12;;;1.05;;
25868;SDS011;13688;53.154;18.136;2023-02-04T11:27:06;3.30;;;1.50;;
25868;SDS011;13688;53.154;18.136;2023-02-04T11:32:35;3.58;;;1.60;;
25868;SDS011;13688;53.154;18.136;2023-02-04T11:43:37;4.03;;;1.10;;
25868;SDS011;13688;53.154;18.136;2023-02-04T11:49:00;3.10;;;1.60;;
25868;SDS011;13688;53.154;18.136;2023-02-04T11:54:27;2.50;;;1.25;;
25868;SDS011;13688;53.154;18.136;2023-02-04T11:59:51;4.55;;;1.20;;
25868;SDS011;13688;53.154;18.136;2023-02-04T12:05:17;3.40;;;1.50;;
25868;SDS011;13688;53.154;18.136;2023-02-04T12:11:09;3.10;;;1.60;;
25868;SDS011;13688;53.154;18.136;2023-02-04T12:16:46;3.75;;;1.47;;
25868;SDS011;13688;53.154;18.136;2023-02-04T12:22:10;5.50;;;1.70;;
25868;SDS011;13688;53.154;18.136;2023-02-04T12:27:32;2.42;;;1.47;;
25868;SDS011;13688;53.154;18.136;2023-02-04T12:32:57;3.08;;;1.32;;
25868;SDS011;13688;53.154;18.136;2023-02-04T12:38:19;3.70;;;1.60;;
25868;SDS011;13688;53.154;18.136;2023-02-04T12:43:43;3.83;;;1.45;;
25868;SDS011;13688;53.154;18.136;2023-02-04T12:49:05;4.60;;;1.37;;
25868;SDS011;13688;53.154;18.136;2023-02-04T12:54:27;4.28;;;1.60;;
25868;SDS011;13688;53.154;18.136;2023-02-04T12:59:51;3.62;;;1.67;;
25868;SDS011;13688;53.154;18.136;2023-02-04T13:05:14;4.35;;;1.60;;
25868;SDS011;13688;53.154;18.136;2023-02-04T13:10:38;2.52;;;1.45;;
25868;SDS011;13688;53.154;18.136;2023-02-04T13:16:01;4.05;;;1.72;;
25868;SDS011;13688;53.154;18.136;2023-02-04T13:21:25;4.62;;;1.57;;
25868;SDS011;13688;53.154;18.136;2023-02-04T13:26:47;3.83;;;1.15;;
25868;SDS011;13688;53.154;18.136;2023-02-04T13:32:10;3.17;;;1.20;;
25868;SDS011;13688;53.154;18.136;2023-02-04T13:37:32;3.58;;;1.55;;
25868;SDS011;13688;53.154;18.136;2023-02-04T13:42:57;3.67;;;1.17;;
25868;SDS011;13688;53.154;18.136;2023-02-04T13:48:19;3.95;;;1.42;;
25868;SDS011;13688;53.154;18.136;2023-02-04T13:53:41;4.00;;;1.35;;
25868;SDS011;13688;53.154;18.136;2023-02-04T13:59:03;2.85;;;1.10;;
25868;SDS011;13688;53.154;18.136;2023-02-04T14:04:27;3.62;;;1.00;;
25868;SDS011;13688;53.154;18.136;2023-02-04T14:09:49;2.62;;;1.20;;
25868;SDS011;13688;53.154;18.136;2023-02-04T14:15:12;4.53;;;1.30;;
25868;SDS011;13688;53.154;18.136;2023-02-04T14:20:34;2.83;;;1.40;;
25868;SDS011;13688;53.154;18.136;2023-02-04T14:25:57;2.30;;;0.88;;
25868;SDS011;13688;53.154;18.136;2023-02-04T14:31:20;3.05;;;1.40;;
25868;SDS011;13688;53.154;18.136;2023-02-04T14:36:42;5.47;;;1.50;;
25868;SDS011;13688;53.154;18.136;2023-02-04T14:42:04;3.65;;;1.55;;
25868;SDS011;13688;53.154;18.136;2023-02-04T14:47:27;4.35;;;1.27;;
25868;SDS011;13688;53.154;18.136;2023-02-04T14:52:50;4.17;;;1.72;;
25868;SDS011;13688;53.154;18.136;2023-02-04T14:58:12;5.42;;;1.85;;
25868;SDS011;13688;53.154;18.136;2023-02-04T15:03:35;3.67;;;1.40;;
25868;SDS011;13688;53.154;18.136;2023-02-04T15:08:58;8.15;;;3.60;;
25868;SDS011;13688;53.154;18.136;2023-02-04T15:14:20;5.85;;;1.90;;
25868;SDS011;13688;53.154;18.136;2023-02-04T15:19:43;3.12;;;1.80;;
25868;SDS011;13688;53.154;18.136;2023-02-04T15:25:06;4.70;;;1.98;;
25868;SDS011;13688;53.154;18.136;2023-02-04T15:30:29;4.60;;;2.17;;
25868;SDS011;13688;53.154;18.136;2023-02-04T15:35:51;3.85;;;1.70;;
25868;SDS011;13688;53.154;18.136;2023-02-04T15:41:15;5.95;;;2.50;;
25868;SDS011;13688;53.154;18.136;2023-02-04T15:46:37;6.60;;;2.58;;
25868;SDS011;13688;53.154;18.136;2023-02-04T15:51:59;8.83;;;3.15;;
25868;SDS011;13688;53.154;18.136;2023-02-04T15:57:36;10.67;;;3.80;;
25868;SDS011;13688;53.154;18.136;2023-02-04T16:02:58;10.63;;;2.93;;
25868;SDS011;13688;53.154;18.136;2023-02-04T16:08:24;6.87;;;2.20;;
25868;SDS011;13688;53.154;18.136;2023-02-04T16:13:47;6.20;;;2.10;;
25868;SDS011;13688;53.154;18.136;2023-02-04T16:19:09;7.03;;;2.37;;
25868;SDS011;13688;53.154;18.136;2023-02-04T16:24:32;5.77;;;2.03;;
25868;SDS011;13688;53.154;18.136;2023-02-04T16:29:55;5.33;;;2.03;;
25868;SDS011;13688;53.154;18.136;2023-02-04T16:35:19;4.43;;;1.80;;
25868;SDS011;13688;53.154;18.136;2023-02-04T16:40:42;6.97;;;2.90;;
25868;SDS011;13688;53.154;18.136;2023-02-04T16:46:04;10.00;;;3.13;;
25868;SDS011;13688;53.154;18.136;2023-02-04T16:51:27;11.30;;;3.00;;
25868;SDS011;13688;53.154;18.136;2023-02-04T16:56:50;11.38;;;3.17;;
25868;SDS011;13688;53.154;18.136;2023-02-04T17:02:14;10.73;;;3.50;;
25868;SDS011;13688;53.154;18.136;2023-02-04T17:07:39;10.63;;;3.65;;
25868;SDS011;13688;53.154;18.136;2023-02-04T17:13:01;10.30;;;4.00;;
25868;SDS011;13688;53.154;18.136;2023-02-04T17:18:24;9.50;;;4.08;;
25868;SDS011;13688;53.154;18.136;2023-02-04T17:23:47;13.60;;;5.47;;
25868;SDS011;13688;53.154;18.136;2023-02-04T17:29:10;11.97;;;4.80;;
25868;SDS011;13688;53.154;18.136;2023-02-04T17:34:33;12.47;;;4.60;;
25868;SDS011;13688;53.154;18.136;2023-02-04T17:39:57;10.37;;;3.97;;
25868;SDS011;13688;53.154;18.136;2023-02-04T17:45:20;11.83;;;4.20;;
25868;SDS011;13688;53.154;18.136;2023-02-04T17:50:43;10.35;;;4.20;;
25868;SDS011;13688;53.154;18.136;2023-02-04T17:56:12;10.73;;;4.13;;
25868;SDS011;13688;53.154;18.136;2023-02-04T18:01:35;10.17;;;3.90;;
25868;SDS011;13688;53.154;18.136;2023-02-04T18:06:58;10.33;;;4.30;;
25868;SDS011;13688;53.154;18.136;2023-02-04T18:12:22;8.90;;;4.10;;
25868;SDS011;13688;53.154;18.136;2023-02-04T18:17:45;10.45;;;4.15;;
25868;SDS011;13688;53.154;18.136;2023-02-04T18:23:27;9.47;;;3.83;;
25868;SDS011;13688;53.154;18.136;2023-02-04T18:28:51;13.32;;;4.30;;
25868;SDS011;13688;53.154;18.136;2023-02-04T18:34:17;10.60;;;3.77;;
25868;SDS011;13688;53.154;18.136;2023-02-04T18:45:43;10.17;;;4.07;;
25868;SDS011;13688;53.154;18.136;2023-02-04T18:51:06;9.65;;;3.85;;
25868;SDS011;13688;53.154;18.136;2023-02-04T18:56:33;9.55;;;3.25;;
25868;SDS011;13688;53.154;18.136;2023-02-04T19:01:57;11.80;;;3.98;;
25868;SDS011;13688;53.154;18.136;2023-02-04T19:07:33;7.50;;;3.30;;
25868;SDS011;13688;53.154;18.136;2023-02-04T19:18:42;11.90;;;3.40;;
25868;SDS011;13688;53.154;18.136;2023-02-04T19:24:13;12.25;;;4.30;;
25868;SDS011;13688;53.154;18.136;2023-02-04T19:29:39;11.65;;;3.60;;
25868;SDS011;13688;53.154;18.136;2023-02-04T19:35:11;11.08;;;3.50;;
25868;SDS011;13688;53.154;18.136;2023-02-04T19:40:37;10.10;;;3.97;;
25868;SDS011;13688;53.154;18.136;2023-02-04T19:45:59;7.43;;;3.80;;
25868;SDS011;13688;53.154;18.136;2023-02-04T19:51:36;8.83;;;3.40;;
25868;SDS011;13688;53.154;18.136;2023-02-04T20:02:53;7.93;;;2.87;;
25868;SDS011;13688;53.154;18.136;2023-02-04T20:08:39;6.87;;;2.83;;
25868;SDS011;13688;53.154;18.136;2023-02-04T20:19:49;6.30;;;2.73;;
25868;SDS011;13688;53.154;18.136;2023-02-04T20:25:31;7.70;;;2.87;;
25868;SDS011;13688;53.154;18.136;2023-02-04T20:30:53;10.88;;;2.90;;
25868;SDS011;13688;53.154;18.136;2023-02-04T20:36:34;6.70;;;2.87;;
25868;SDS011;13688;53.154;18.136;2023-02-04T20:53:51;7.77;;;3.03;;
25868;SDS011;13688;53.154;18.136;2023-02-04T20:59:21;7.40;;;2.83;;
25868;SDS011;13688;53.154;18.136;2023-02-04T21:04:44;8.27;;;3.50;;
25868;SDS011;13688;53.154;18.136;2023-02-04T21:10:06;9.53;;;4.40;;
25868;SDS011;13688;53.154;18.136;2023-02-04T21:15:29;11.97;;;4.78;;
25868;SDS011;13688;53.154;18.136;2023-02-04T21:20:55;12.78;;;4.85;;
25868;SDS011;13688;53.154;18.136;2023-02-04T21:26:30;9.50;;;4.12;;
25868;SDS011;13688;53.154;18.136;2023-02-04T21:31:53;8.40;;;3.55;;
25868;SDS011;13688;53.154;18.136;2023-02-04T21:37:15;9.73;;;4.12;;
25868;SDS011;13688;53.154;18.136;2023-02-04T21:42:38;9.20;;;3.63;;
25868;SDS011;13688;53.154;18.136;2023-02-04T21:48:01;11.63;;;4.47;;
25868;SDS011;13688;53.154;18.136;2023-02-04T21:53:24;11.15;;;4.40;;
25868;SDS011;13688;53.154;18.136;2023-02-04T21:58:47;9.18;;;4.12;;
25868;SDS011;13688;53.154;18.136;2023-02-04T22:04:10;10.70;;;4.00;;
25868;SDS011;13688;53.154;18.136;2023-02-04T22:09:32;8.40;;;4.00;;
25868;SDS011;13688;53.154;18.136;2023-02-04T22:14:54;11.80;;;4.93;;
25868;SDS011;13688;53.154;18.136;2023-02-04T22:20:20;13.30;;;5.13;;
25868;SDS011;13688;53.154;18.136;2023-02-04T22:25:44;8.40;;;3.87;;
25868;SDS011;13688;53.154;18.136;2023-02-04T22:31:07;7.53;;;3.58;;
25868;SDS011;13688;53.154;18.136;2023-02-04T22:36:47;12.23;;;3.90;;
25868;SDS011;13688;53.154;18.136;2023-02-04T22:42:10;10.37;;;4.00;;
25868;SDS011;13688;53.154;18.136;2023-02-04T22:47:35;9.00;;;3.70;;
25868;SDS011;13688;53.154;18.136;2023-02-04T22:52:58;14.00;;;4.37;;
25868;SDS011;13688;53.154;18.136;2023-02-04T22:58:20;9.47;;;4.03;;
25868;SDS011;13688;53.154;18.136;2023-02-04T23:03:42;8.33;;;3.70;;
25868;SDS011;13688;53.154;18.136;2023-02-04T23:09:05;8.43;;;3.57;;
25868;SDS011;13688;53.154;18.136;2023-02-04T23:14:27;9.00;;;3.60;;
25868;SDS011;13688;53.154;18.136;2023-02-04T23:19:51;9.20;;;3.73;;
25868;SDS011;13688;53.154;18.136;2023-02-04T23:25:13;8.17;;;3.90;;
25868;SDS011;13688;53.154;18.136;2023-02-04T23:30:37;10.63;;;3.50;;
25868;SDS011;13688;53.154;18.136;2023-02-04T23:36:00;8.80;;;3.75;;
25868;SDS011;13688;53.154;18.136;2023-02-04T23:41:23;13.25;;;3.75;;
25868;SDS011;13688;53.154;18.136;2023-02-04T23:46:46;8.55;;;3.83;;
25868;SDS011;13688;53.154;18.136;2023-02-04T23:52:08;9.63;;;4.05;;
25868;SDS011;13688;53.154;18.136;2023-02-04T23:57:31;9.90;;;4.83;;
